Wendel, West Virginia
Current Conditions -  °F | °C
As of 1:53 AM on Monday 24 Nov 2014 (Local Time) from KCKB Reporting Station
Broken Clouds Broken Clouds  
Wind Chill: 64°   Ceiling: 7000
Heat Index: 64°   Visibility: 10mi
Dew Point: 50°   Wind: 16mph
Humidity: 60%   Direction: 190°S
Pressure: 29.46"   Gusts: 26mph
Location:  39.2753°N, 80.1249°W
Report Text: KCKB 240653Z AUTO 19014G23KT 10SM BKN070 BKN095 18/10 A2946 RMK AO2 PK WND 17026/0634 SLP963 T01780100 TSNO
Loading
Personal Weather Stations






























Interactive Weather Map New forecast layout! Learn more

10-Day Weather Forecast

Advertisements
Track Severe Weather on mobile